EST,Max TemperatureF,Mean TemperatureF,Min TemperatureF,Max Dew PointF,MeanDew PointF,Min DewpointF,Max Humidity, Mean Humidity, Min Humidity, Max Sea Level PressureIn, Mean Sea Level PressureIn, Min Sea Level PressureIn, Max VisibilityMiles, Mean VisibilityMiles, Min VisibilityMiles, Max Wind SpeedMPH, Mean Wind SpeedMPH, Max Gust SpeedMPH,PrecipitationIn, CloudCover, Events, WindDirDegrees
2013-11-1,66,56,47,53,46,37,87,62,38,29.80,29.74,29.66,10,10,5,22,11,32,0.22,5,Rain,236
2013-11-2,55,46,37,40,33,26,95,66,33,29.99,29.84,29.77,10,10,10,14,2,22,0.00,3,,272
2013-11-3,47,38,30,34,29,25,88,65,43,30.38,30.20,30.00,10,10,7,13,5,16,0.00,5,,328
2013-11-4,32,28,25,27,25,23,92,89,79,30.51,30.45,30.38,10,10,10,7,4,,0.00,0,,32
2013-11-5,,,,,,,,,,,,,,,,,,,,,,
2013-11-6,,,,,,,,,,,,,,,,,,,,,,
2013-11-7,,,,,,,,,,,,,,,,,,,,,,
2013-11-8,,,,,,,,,,,,,,,,,,,,,,
2013-11-9,,,,,,,,,,,,,,,,,,,,,,
2013-11-10,,,,,,,,,,,,,,,,,,,,,,
2013-11-11,57,48,38,25,19,12,58,36,17,30.15,30.12,30.09,10,10,10,7,3,,0.00,3,,214
2013-11-12,48,36,23,33,20,13,86,62,30,30.43,30.24,30.04,10,9,2,16,7,23,0.00,7,Snow,320
2013-11-13,32,26,20,21,15,12,92,65,47,30.50,30.45,30.41,10,10,1,10,5,16,0.00,3,Snow,302
2013-11-14,50,32,15,20,14,10,89,58,20,30.41,30.34,30.26,10,10,10,10,2,,0.00,0,,224
2013-11-15,54,36,18,41,23,14,95,63,21,30.30,30.24,30.18,10,9,5,7,2,,0.11,3,Rain,238
2013-11-16,59,48,37,47,43,36,96,86,63,30.28,30.23,30.19,10,7,0,7,3,,0.00,6,Fog-Rain,38
2013-11-17,63,54,44,53,48,43,95,83,57,30.20,30.03,29.79,10,8,2,14,3,18,0.09,7,Rain,163
2013-11-18,55,48,38,53,30,19,88,51,26,30.05,29.95,29.84,10,10,5,18,9,30,0.17,2,Rain,274
2013-11-19,39,34,28,24,21,19,77,61,47,30.30,30.19,30.05,10,10,10,16,8,21,0.00,2,,334
2013-11-20,43,34,25,21,18,15,77,55,34,30.44,30.37,30.29,10,10,10,8,4,,0.00,0,,86
2013-11-21,49,36,25,36,29,19,82,72,61,30.48,30.42,30.36,10,10,10,9,5,,0.00,4,,19
2013-11-22,55,48,41,52,43,36,93,81,73,30.36,30.22,30.13,10,10,3,14,3,,0.03,8,Rain,273
2013-11-23,44,34,22,41,25,8,89,67,47,30.25,30.18,30.14,10,10,7,21,8,30,0.00,6,Snow,309
2013-11-24,22,16,11,12,1,-4,74,49,32,30.45,30.38,30.25,10,10,2,17,10,31,0.00,3,Snow,324
2013-11-25,36,23,10,24,8,0,83,53,23,30.45,30.35,30.27,10,10,2,10,2,,0.00,2,Snow,294
2013-11-26,40,34,28,40,33,24,99,95,86,30.26,29.98,29.65,10,4,1,12,4,,1.36,8,Rain-Snow,19
2013-11-27,34,28,19,37,21,8,95,80,61,30.12,29.81,29.65,10,6,1,17,8,29,0.02,8,Snow,297
2013-11-28,30,24,17,17,13,10,87,69,52,30.40,30.30,30.13,10,10,5,10,5,21,0.00,3,Snow,266
2013-11-29,38,28,19,20,17,14,84,65,44,30.57,30.50,30.40,10,10,10,6,1,,0.00,1,,282
2013-11-30,37,26,16,20,18,14,90,75,50,30.56,30.46,30.29,10,10,10,7,2,,0.00,0,,43